createdAt,value
2023-10-07T00:01:08.896Z,26.36
2023-10-07T00:03:39.732Z,26.32
2023-10-07T00:06:11.938Z,26.35
2023-10-07T00:08:40.317Z,26.35
2023-10-07T00:11:13.121Z,26.50
2023-10-07T00:13:43.833Z,26.41
2023-10-07T00:16:18.614Z,26.33
2023-10-07T00:18:49.548Z,26.40
2023-10-07T00:21:28.336Z,26.40
2023-10-07T00:23:58.870Z,26.44
2023-10-07T00:26:28.155Z,26.46
2023-10-07T00:29:02.649Z,26.47
2023-10-07T00:31:35.011Z,26.38
2023-10-07T00:34:15.757Z,26.38
2023-10-07T00:36:43.554Z,26.36
2023-10-07T00:39:21.352Z,26.42
2023-10-07T00:41:51.960Z,26.34
2023-10-07T00:44:24.107Z,26.33
2023-10-07T00:47:04.069Z,26.38
2023-10-07T00:49:42.900Z,26.30
2023-10-07T00:52:14.768Z,26.23
2023-10-07T00:54:48.841Z,26.35
2023-10-07T00:57:34.296Z,26.36
2023-10-07T01:00:27.391Z,26.31
2023-10-07T01:03:13.643Z,26.42
2023-10-07T01:06:00.002Z,26.31
2023-10-07T01:08:37.041Z,26.44
2023-10-07T01:11:16.818Z,26.38
2023-10-07T01:13:51.476Z,26.33
2023-10-07T01:16:29.135Z,26.37
2023-10-07T01:19:11.787Z,26.30
2023-10-07T01:21:57.097Z,26.32
2023-10-07T01:24:39.869Z,26.37
2023-10-07T01:27:43.608Z,26.34
2023-10-07T01:30:17.897Z,26.34
2023-10-07T01:32:58.738Z,26.24
2023-10-07T01:35:33.273Z,26.37
2023-10-07T01:38:01.682Z,26.32
2023-10-07T01:40:45.577Z,26.41
2023-10-07T01:43:13.449Z,26.37
2023-10-07T01:45:43.880Z,26.38
2023-10-07T01:48:11.491Z,26.34
2023-10-07T01:50:42.570Z,26.39
2023-10-07T01:53:18.400Z,26.42
2023-10-07T01:55:47.091Z,26.35
2023-10-07T01:58:16.321Z,26.47
2023-10-07T02:00:45.222Z,26.44
2023-10-07T02:03:24.633Z,26.30
2023-10-07T02:05:53.379Z,26.36
2023-10-07T02:08:23.415Z,26.37
2023-10-07T02:10:58.504Z,26.35
2023-10-07T02:13:31.265Z,26.45
2023-10-07T02:16:07.735Z,26.33
2023-10-07T02:18:36.903Z,26.36
2023-10-07T02:21:11.655Z,26.48
2023-10-07T02:23:44.297Z,26.37
2023-10-07T02:26:20.101Z,26.41
2023-10-07T02:28:54.089Z,26.37
2023-10-07T02:31:24.961Z,26.47
2023-10-07T02:33:53.991Z,26.48
2023-10-07T02:36:33.459Z,26.54
2023-10-07T02:39:20.689Z,26.37
2023-10-07T02:41:48.882Z,26.43
2023-10-07T02:44:27.634Z,26.45
2023-10-07T02:46:58.449Z,26.34
2023-10-07T02:49:27.045Z,26.31
2023-10-07T02:51:59.846Z,26.35
2023-10-07T02:54:42.874Z,26.40
2023-10-07T02:57:23.008Z,26.48
2023-10-07T03:00:01.596Z,26.48
2023-10-07T03:02:50.030Z,26.46
2023-10-07T03:05:30.971Z,26.40
2023-10-07T03:08:07.777Z,26.48
2023-10-07T03:10:45.035Z,26.46
2023-10-07T03:13:17.326Z,26.33
2023-10-07T03:16:08.959Z,26.33
2023-10-07T03:18:39.576Z,26.41
2023-10-07T03:21:13.180Z,26.40
2023-10-07T03:23:49.751Z,26.48
2023-10-07T03:26:21.561Z,26.50
2023-10-07T03:28:57.062Z,26.59
2023-10-07T03:31:48.790Z,26.61
2023-10-07T03:34:16.492Z,26.74
2023-10-07T03:37:10.039Z,26.77
2023-10-07T03:40:06.658Z,26.74
2023-10-07T03:42:34.523Z,26.92
2023-10-07T03:45:02.067Z,26.78
2023-10-07T03:47:33.974Z,26.69
2023-10-07T03:50:05.716Z,26.66
2023-10-07T03:52:36.580Z,26.66
2023-10-07T03:55:04.553Z,26.62
2023-10-07T03:57:34.944Z,26.93
2023-10-07T04:00:02.536Z,26.87
2023-10-07T04:02:42.835Z,26.75
2023-10-07T04:05:11.947Z,26.75
2023-10-07T04:07:40.981Z,25.98
2023-10-07T04:10:14.674Z,26.41
2023-10-07T04:12:42.154Z,26.60
2023-10-07T04:15:14.302Z,26.32
2023-10-07T04:17:44.605Z,26.12
2023-10-07T04:20:25.851Z,26.23
2023-10-07T04:23:01.737Z,26.20
2023-10-07T04:25:33.254Z,26.28
2023-10-07T04:28:07.272Z,26.39
2023-10-07T04:30:48.898Z,26.35
2023-10-07T04:33:20.049Z,26.30
2023-10-07T04:35:51.802Z,26.39
2023-10-07T04:38:42.424Z,26.40
2023-10-07T04:41:25.113Z,26.49
2023-10-07T04:44:00.524Z,26.42
2023-10-07T04:46:43.938Z,26.57
2023-10-07T04:49:14.537Z,26.60
2023-10-07T04:51:42.514Z,26.69
2023-10-07T04:54:12.223Z,26.93
2023-10-07T04:56:48.455Z,26.82
2023-10-07T04:59:18.566Z,26.80
2023-10-07T05:01:57.286Z,26.74
2023-10-07T05:04:26.306Z,26.71
2023-10-07T05:06:55.954Z,26.84
2023-10-07T05:09:24.459Z,26.87
2023-10-07T05:11:52.024Z,26.89
2023-10-07T05:14:19.660Z,26.90
2023-10-07T05:16:48.628Z,26.97
2023-10-07T05:19:24.065Z,27.00
2023-10-07T05:22:12.242Z,26.91
2023-10-07T05:24:39.983Z,26.97
2023-10-07T05:27:07.456Z,26.86
2023-10-07T05:29:37.114Z,26.95
2023-10-07T05:32:04.949Z,26.73
2023-10-07T05:34:34.928Z,26.65
2023-10-07T05:37:05.728Z,26.40
2023-10-07T05:39:34.456Z,26.29
2023-10-07T05:42:04.609Z,26.34
2023-10-07T05:44:33.128Z,26.27
2023-10-07T05:47:04.086Z,26.29
2023-10-07T05:49:32.503Z,26.24
2023-10-07T05:52:00.246Z,26.26
2023-10-07T05:54:29.800Z,26.17
2023-10-07T05:56:57.594Z,26.25
2023-10-07T05:59:26.694Z,26.08
2023-10-07T06:01:54.330Z,25.86
2023-10-07T06:04:22.044Z,25.97
2023-10-07T06:06:51.231Z,25.83
2023-10-07T06:09:19.122Z,25.91
2023-10-07T06:11:49.694Z,26.02
2023-10-07T06:14:19.939Z,25.94
2023-10-07T06:16:47.548Z,26.06
2023-10-07T06:19:14.959Z,25.92
2023-10-07T06:21:52.313Z,26.13
2023-10-07T06:24:23.270Z,26.06
2023-10-07T06:26:54.925Z,26.12
2023-10-07T06:29:22.933Z,26.12
2023-10-07T06:32:14.492Z,26.32
2023-10-07T06:34:46.241Z,26.02
2023-10-07T06:41:36.529Z,25.91
2023-10-07T06:44:05.098Z,26.19
2023-10-07T06:46:43.410Z,25.99
2023-10-07T06:49:20.963Z,25.90
2023-10-07T06:51:54.574Z,26.11
2023-10-07T06:54:24.618Z,26.16
2023-10-07T06:56:55.573Z,25.94
2023-10-07T06:59:29.531Z,26.22
2023-10-07T07:02:12.642Z,26.14
2023-10-07T07:04:42.936Z,26.15
2023-10-07T07:07:12.023Z,26.38
2023-10-07T07:09:51.891Z,26.33
2023-10-07T07:12:24.260Z,26.47
2023-10-07T07:14:52.928Z,25.90
2023-10-07T07:17:31.033Z,26.13
2023-10-07T07:20:08.713Z,26.14
2023-10-07T07:22:40.666Z,26.22
2023-10-07T07:25:13.952Z,26.15
2023-10-07T07:27:49.370Z,26.26
2023-10-07T07:30:21.712Z,25.73
2023-10-07T07:32:58.090Z,25.47
2023-10-07T07:35:40.177Z,25.29
2023-10-07T07:38:24.297Z,25.35
2023-10-07T07:41:08.299Z,25.23
2023-10-07T07:43:38.785Z,25.13
2023-10-07T07:46:18.982Z,25.18
2023-10-07T07:48:47.130Z,25.06
2023-10-07T07:51:18.667Z,25.00
2023-10-07T07:53:46.545Z,25.02
2023-10-07T07:56:14.356Z,25.72
2023-10-07T07:58:53.401Z,25.61
2023-10-07T08:01:24.806Z,25.53
2023-10-07T08:03:57.198Z,25.85
2023-10-07T08:06:27.188Z,25.85
2023-10-07T08:08:56.680Z,25.71
2023-10-07T08:11:24.687Z,26.03
2023-10-07T08:13:54.747Z,25.65
2023-10-07T08:16:22.402Z,25.67
2023-10-07T08:18:51.851Z,25.73
2023-10-07T08:21:19.268Z,25.55
2023-10-07T08:23:47.749Z,25.54
2023-10-07T08:26:21.922Z,25.85
2023-10-07T08:28:55.558Z,26.33
2023-10-07T08:31:39.216Z,25.94
2023-10-07T08:34:08.047Z,25.82
2023-10-07T08:36:40.603Z,26.26
2023-10-07T08:39:10.593Z,26.26
2023-10-07T08:41:51.618Z,26.33
2023-10-07T08:44:22.194Z,26.27
2023-10-07T08:46:50.806Z,25.91
2023-10-07T08:49:26.766Z,25.76
2023-10-07T08:51:56.037Z,25.76
2023-10-07T08:54:46.078Z,25.94
2023-10-07T08:57:20.367Z,25.96
2023-10-07T08:59:53.834Z,25.76
2023-10-07T09:02:28.615Z,25.88
2023-10-07T09:04:59.308Z,26.11
2023-10-07T09:07:37.728Z,25.95
2023-10-07T09:10:18.270Z,25.85
2023-10-07T09:12:51.858Z,25.69
2023-10-07T09:15:27.914Z,25.72
2023-10-07T09:18:05.826Z,26.13
2023-10-07T09:20:37.902Z,26.15
2023-10-07T09:23:16.926Z,25.93
2023-10-07T09:25:53.163Z,26.14
2023-10-07T09:28:37.094Z,26.08
2023-10-07T09:31:09.683Z,26.11
2023-10-07T09:33:43.075Z,26.40
2023-10-07T09:36:25.014Z,26.43
2023-10-07T09:39:12.166Z,26.61
2023-10-07T09:41:40.977Z,26.37
2023-10-07T09:44:21.846Z,26.38
2023-10-07T09:46:54.254Z,26.46
2023-10-07T09:49:29.646Z,26.52
2023-10-07T09:52:16.741Z,26.52
2023-10-07T09:55:24.785Z,26.21
2023-10-07T09:58:25.952Z,26.27
2023-10-07T10:01:06.874Z,26.42
2023-10-07T10:04:13.239Z,26.50
2023-10-07T10:07:23.297Z,26.67
2023-10-07T10:10:14.860Z,26.57
2023-10-07T10:12:58.548Z,26.46
2023-10-07T10:15:39.356Z,26.24
2023-10-07T10:18:28.766Z,26.19
2023-10-07T10:21:06.834Z,26.24
2023-10-07T10:23:34.739Z,26.29
2023-10-07T10:26:16.098Z,26.16
2023-10-07T10:28:57.319Z,26.26
2023-10-07T10:31:26.052Z,26.23
2023-10-07T10:33:53.923Z,26.35
2023-10-07T10:36:24.574Z,26.34
2023-10-07T10:38:54.797Z,26.43
2023-10-07T10:41:29.115Z,26.30
2023-10-07T10:44:11.829Z,26.51
2023-10-07T10:46:49.818Z,26.67
2023-10-07T10:49:19.521Z,26.62
2023-10-07T10:51:56.006Z,26.68
2023-10-07T10:54:24.618Z,26.66
2023-10-07T10:57:01.801Z,26.76
2023-10-07T10:59:38.466Z,26.83
2023-10-07T11:02:06.964Z,26.71
2023-10-07T11:04:34.747Z,26.89
2023-10-07T11:07:02.442Z,26.86
2023-10-07T11:09:37.624Z,26.93
2023-10-07T11:12:10.348Z,26.85
2023-10-07T11:14:39.808Z,27.00
2023-10-07T11:17:10.313Z,27.01
2023-10-07T11:19:48.665Z,26.90
2023-10-07T11:22:20.722Z,26.85
2023-10-07T11:24:52.128Z,26.92
2023-10-07T11:27:25.150Z,26.96
2023-10-07T11:29:59.698Z,27.03
2023-10-07T11:32:31.704Z,27.06
2023-10-07T11:35:00.901Z,27.05
2023-10-07T11:37:29.590Z,27.05
2023-10-07T11:40:01.568Z,27.00
2023-10-07T11:42:30.426Z,27.06
2023-10-07T11:44:58.563Z,27.00
2023-10-07T11:47:26.604Z,27.04
2023-10-07T11:49:56.039Z,27.14
2023-10-07T11:52:25.125Z,27.04
2023-10-07T11:54:52.780Z,27.09
2023-10-07T11:57:20.448Z,27.07
2023-10-07T11:59:47.858Z,27.13
2023-10-07T12:02:18.581Z,27.18
2023-10-07T12:04:48.870Z,27.13
2023-10-07T12:07:17.848Z,27.19
2023-10-07T12:09:48.409Z,27.15
2023-10-07T12:12:18.501Z,27.28
2023-10-07T12:14:49.117Z,27.29
2023-10-07T12:17:17.997Z,27.37
2023-10-07T12:19:46.004Z,27.33
2023-10-07T12:22:14.708Z,27.43
2023-10-07T12:24:45.600Z,27.47
2023-10-07T12:27:14.174Z,27.02
2023-10-07T12:29:41.620Z,26.76
2023-10-07T12:32:11.535Z,26.67
2023-10-07T12:34:48.974Z,26.84
2023-10-07T12:37:16.921Z,26.60
2023-10-07T12:39:50.403Z,26.54
2023-10-07T12:42:19.672Z,26.70
2023-10-07T12:44:47.562Z,26.55
2023-10-07T12:47:15.866Z,26.87
2023-10-07T12:49:46.903Z,26.87
2023-10-07T12:52:17.343Z,26.65
2023-10-07T12:54:47.650Z,26.76
2023-10-07T12:57:16.872Z,26.85
2023-10-07T12:59:45.457Z,26.82
2023-10-07T13:02:18.546Z,26.58
2023-10-07T13:04:50.434Z,26.54
2023-10-07T13:07:19.138Z,26.40
2023-10-07T13:09:49.844Z,26.54
2023-10-07T13:12:23.460Z,26.22
2023-10-07T13:14:52.329Z,26.30
2023-10-07T13:17:21.898Z,26.27
2023-10-07T13:19:53.197Z,26.28
2023-10-07T13:22:20.817Z,26.40
2023-10-07T13:24:48.254Z,26.27
2023-10-07T13:27:21.292Z,26.12
2023-10-07T13:29:49.276Z,26.11
2023-10-07T13:32:19.183Z,25.91
2023-10-07T13:34:47.736Z,25.84
2023-10-07T13:37:15.224Z,26.02
2023-10-07T13:39:42.976Z,26.36
2023-10-07T13:42:14.489Z,26.21
2023-10-07T13:44:44.329Z,26.27
2023-10-07T13:47:12.651Z,26.12
2023-10-07T13:49:43.102Z,25.99
2023-10-07T13:52:10.982Z,26.08
2023-10-07T13:54:48.434Z,26.26
2023-10-07T13:57:20.578Z,26.37
2023-10-07T13:59:48.290Z,26.74
2023-10-07T14:02:21.178Z,26.73
2023-10-07T14:04:54.395Z,26.76
2023-10-07T14:07:22.035Z,26.60
2023-10-07T14:09:50.586Z,26.44
2023-10-07T14:12:18.363Z,26.48
2023-10-07T14:14:53.640Z,26.37
2023-10-07T14:17:21.849Z,26.42
2023-10-07T14:19:50.004Z,26.41
2023-10-07T14:22:20.334Z,26.36
2023-10-07T14:24:47.798Z,26.33
2023-10-07T14:27:18.352Z,26.32
2023-10-07T14:29:48.116Z,26.26
2023-10-07T14:32:15.657Z,26.32
2023-10-07T14:34:43.384Z,26.00
2023-10-07T14:37:11.717Z,26.21
2023-10-07T14:39:54.447Z,26.26
2023-10-07T14:42:27.808Z,26.31
2023-10-07T14:44:56.628Z,26.35
2023-10-07T14:47:25.639Z,26.25
2023-10-07T14:49:54.815Z,26.26
2023-10-07T14:52:23.763Z,26.30
2023-10-07T14:54:51.315Z,26.07
2023-10-07T14:57:22.487Z,26.06
2023-10-07T14:59:52.293Z,26.18
2023-10-07T15:02:20.003Z,26.13
2023-10-07T15:04:54.650Z,26.19
2023-10-07T15:07:22.121Z,25.96
2023-10-07T15:09:51.759Z,26.05
2023-10-07T15:12:19.249Z,26.28
2023-10-07T15:14:47.180Z,26.24
2023-10-07T15:17:16.982Z,26.21
2023-10-07T15:19:53.619Z,26.34
2023-10-07T15:22:21.728Z,26.42
2023-10-07T15:24:50.573Z,26.39
2023-10-07T15:27:18.253Z,26.43
2023-10-07T15:29:45.724Z,26.19
2023-10-07T15:32:14.603Z,26.06
2023-10-07T15:34:43.351Z,26.27
2023-10-07T15:37:11.043Z,26.22
2023-10-07T15:39:38.396Z,26.48
2023-10-07T15:42:10.177Z,26.66
2023-10-07T15:44:37.667Z,26.67
2023-10-07T15:47:05.656Z,26.57
2023-10-07T15:49:33.217Z,26.58
2023-10-07T15:52:03.353Z,26.51
2023-10-07T15:54:30.783Z,26.68
2023-10-07T15:56:58.521Z,26.76
2023-10-07T15:59:26.083Z,26.70
2023-10-07T16:01:53.628Z,26.68
2023-10-07T16:04:22.291Z,26.73
2023-10-07T16:06:50.024Z,26.64
2023-10-07T16:09:20.189Z,26.67
2023-10-07T16:11:50.258Z,26.79
2023-10-07T16:14:19.986Z,26.69
2023-10-07T16:16:49.716Z,26.72
2023-10-07T16:19:17.427Z,26.65
2023-10-07T16:21:45.122Z,26.56
2023-10-07T16:24:13.253Z,26.54
2023-10-07T16:26:47.014Z,26.49
2023-10-07T16:29:16.869Z,26.42
2023-10-07T16:31:44.683Z,26.50
2023-10-07T16:34:13.008Z,26.45
2023-10-07T16:36:40.591Z,26.34
2023-10-07T16:39:10.212Z,26.29
2023-10-07T16:41:38.498Z,26.43
2023-10-07T16:44:06.684Z,26.41
2023-10-07T16:46:35.423Z,26.35
2023-10-07T16:49:02.914Z,26.34
2023-10-07T16:51:30.472Z,26.44
2023-10-07T16:53:57.833Z,26.32
2023-10-07T16:56:27.975Z,26.38
2023-10-07T16:58:55.601Z,26.24
2023-10-07T17:01:23.238Z,26.26
2023-10-07T17:03:51.199Z,26.28
2023-10-07T17:06:18.731Z,26.17
2023-10-07T17:08:47.826Z,26.37
2023-10-07T17:11:18.984Z,26.26
2023-10-07T17:13:49.150Z,26.25
2023-10-07T17:16:18.294Z,26.26
2023-10-07T17:18:46.668Z,26.21
2023-10-07T17:21:14.980Z,26.36
2023-10-07T17:23:42.428Z,26.04
2023-10-07T17:26:10.226Z,26.06
2023-10-07T17:28:37.646Z,25.97
2023-10-07T17:31:10.249Z,26.23
2023-10-07T17:33:41.719Z,26.36
2023-10-07T17:36:09.740Z,26.36
2023-10-07T17:38:37.492Z,26.27
2023-10-07T17:41:38.726Z,25.99
2023-10-07T17:44:07.426Z,25.92
2023-10-07T17:46:35.526Z,25.84
2023-10-07T17:49:04.096Z,25.96
2023-10-07T17:51:32.090Z,25.96
2023-10-07T17:53:59.696Z,25.93
2023-10-07T17:56:27.331Z,25.72
2023-10-07T17:58:55.060Z,26.01
2023-10-07T18:01:22.560Z,25.77
2023-10-07T18:03:55.100Z,25.83
2023-10-07T18:06:25.267Z,25.74
2023-10-07T18:08:52.800Z,25.75
2023-10-07T18:11:20.455Z,25.69
2023-10-07T18:13:48.176Z,25.63
2023-10-07T18:16:16.068Z,25.60
2023-10-07T18:18:43.630Z,25.76
2023-10-07T18:21:11.451Z,25.78
2023-10-07T18:23:39.776Z,25.92
2023-10-07T18:26:08.187Z,25.52
2023-10-07T18:29:05.203Z,25.93
2023-10-07T18:31:39.433Z,25.83
2023-10-07T18:34:12.470Z,25.88
2023-10-07T18:36:46.996Z,25.81
2023-10-07T18:39:17.578Z,25.78
2023-10-07T18:41:46.805Z,25.52
2023-10-07T18:44:14.674Z,25.92
2023-10-07T18:46:44.169Z,25.74
2023-10-07T18:49:13.073Z,25.97
2023-10-07T18:51:40.888Z,25.62
2023-10-07T18:54:08.347Z,26.01
2023-10-07T18:56:36.127Z,25.97
2023-10-07T18:59:06.195Z,25.84
2023-10-07T19:01:34.474Z,25.85
2023-10-07T19:04:06.506Z,25.50
2023-10-07T19:06:36.618Z,25.29
2023-10-07T19:09:05.067Z,25.42
2023-10-07T19:11:36.614Z,25.46
2023-10-07T19:14:05.835Z,25.35
2023-10-07T19:16:35.979Z,25.20
2023-10-07T19:19:06.951Z,25.30
2023-10-07T19:21:35.416Z,25.20
2023-10-07T19:24:02.817Z,25.07
2023-10-07T19:26:30.380Z,25.28
2023-10-07T19:28:57.795Z,25.31
2023-10-07T19:31:25.528Z,25.39
2023-10-07T19:33:57.955Z,25.30
2023-10-07T19:36:27.777Z,25.14
2023-10-07T19:38:55.237Z,25.17
2023-10-07T19:41:23.023Z,25.20
2023-10-07T19:43:57.341Z,25.58
2023-10-07T19:46:25.241Z,25.24
2023-10-07T19:48:52.886Z,25.61
2023-10-07T19:51:20.748Z,25.55
2023-10-07T19:53:51.257Z,25.15
2023-10-07T19:56:19.358Z,25.29
2023-10-07T19:58:46.762Z,25.38
2023-10-07T20:01:14.362Z,25.29
2023-10-07T20:03:42.065Z,25.26
2023-10-07T20:06:10.980Z,25.06
2023-10-07T20:08:41.337Z,25.43
2023-10-07T20:11:10.805Z,25.08
2023-10-07T20:13:38.887Z,25.15
2023-10-07T20:16:08.351Z,25.29
2023-10-07T20:18:35.783Z,25.39
2023-10-07T20:21:03.521Z,25.15
2023-10-07T20:23:30.988Z,25.38
2023-10-07T20:26:03.190Z,25.22
2023-10-07T20:28:30.726Z,25.09
2023-10-07T20:30:58.332Z,25.13
2023-10-07T20:33:26.086Z,25.14
2023-10-07T20:35:53.682Z,25.31
2023-10-07T20:38:21.785Z,25.38
2023-10-07T20:40:58.520Z,25.44
2023-10-07T20:43:28.809Z,25.31
2023-10-07T20:46:01.115Z,25.43
2023-10-07T20:48:33.469Z,25.16
2023-10-07T20:51:10.667Z,25.29
2023-10-07T20:53:40.612Z,25.25
2023-10-07T20:56:11.154Z,25.29
2023-10-07T20:58:39.272Z,25.70
2023-10-07T21:01:21.363Z,25.51
2023-10-07T21:03:51.082Z,25.33
2023-10-07T21:06:21.528Z,25.31
2023-10-07T21:08:51.009Z,25.19
2023-10-07T21:11:24.922Z,25.02
2023-10-07T21:13:57.233Z,25.45
2023-10-07T21:16:25.606Z,25.61
2023-10-07T21:18:55.629Z,25.23
2023-10-07T21:21:24.247Z,25.32
2023-10-07T21:23:51.977Z,25.50
2023-10-07T21:26:24.548Z,25.44
2023-10-07T21:28:56.930Z,25.04
2023-10-07T21:31:32.132Z,25.09
2023-10-07T21:33:59.586Z,25.03
2023-10-07T21:36:27.561Z,25.04
2023-10-07T21:38:56.045Z,25.07
2023-10-07T21:41:23.641Z,25.33
2023-10-07T21:43:51.198Z,25.12
2023-10-07T21:46:20.744Z,25.40
2023-10-07T21:48:48.576Z,25.29
2023-10-07T21:51:20.513Z,25.03
2023-10-07T21:56:15.867Z,24.99
2023-10-07T21:58:43.938Z,25.16
2023-10-07T22:01:19.098Z,25.14
2023-10-07T22:03:49.520Z,25.38
2023-10-07T22:06:19.208Z,25.53
2023-10-07T22:08:48.432Z,25.48
2023-10-07T22:11:17.041Z,25.19
2023-10-07T22:13:44.782Z,25.06
2023-10-07T22:16:13.310Z,25.04
2023-10-07T22:18:40.961Z,25.44
2023-10-07T22:21:11.962Z,25.17
2023-10-07T22:23:39.711Z,25.30
2023-10-07T22:26:12.976Z,25.17
2023-10-07T22:28:40.898Z,25.29
2023-10-07T22:31:08.697Z,25.35
2023-10-07T22:33:36.577Z,25.00
2023-10-07T22:36:19.167Z,25.45
2023-10-07T22:38:54.977Z,25.57
2023-10-07T22:41:38.831Z,25.54
2023-10-07T22:44:22.699Z,25.04
2023-10-07T22:47:09.060Z,25.26
2023-10-07T22:49:37.178Z,25.08
2023-10-07T22:52:09.585Z,25.10
2023-10-07T22:54:50.968Z,25.05
2023-10-07T22:57:18.369Z,25.26
2023-10-07T22:59:48.745Z,24.99
2023-10-07T23:02:30.584Z,24.97
2023-10-07T23:04:58.893Z,25.43
2023-10-07T23:07:26.489Z,25.32
2023-10-07T23:10:00.040Z,25.11
2023-10-07T23:12:40.049Z,25.34
2023-10-07T23:15:16.059Z,25.16
2023-10-07T23:17:44.007Z,25.14
2023-10-07T23:20:21.133Z,25.06
2023-10-07T23:22:48.766Z,25.07
2023-10-07T23:25:19.843Z,25.12
2023-10-07T23:27:51.044Z,25.18
2023-10-07T23:30:29.140Z,25.19
2023-10-07T23:33:00.282Z,25.39
2023-10-07T23:35:33.921Z,25.19
2023-10-07T23:38:19.332Z,24.93
2023-10-07T23:40:53.220Z,24.90
2023-10-07T23:43:21.576Z,24.91
2023-10-07T23:45:52.779Z,24.97
2023-10-07T23:48:20.998Z,25.00
2023-10-07T23:50:58.136Z,25.19
2023-10-07T23:53:31.910Z,25.06
2023-10-07T23:56:07.420Z,25.13
2023-10-07T23:58:44.265Z,25.37
